sensor_id;sensor_type;location;lat;lon;timestamp;P1;durP1;ratioP1;P2;durP2;ratioP2
40511;SDS011;26213;52.446;20.706;2022-10-16T00:01:57;22.10;;;14.27;;
40511;SDS011;26213;52.446;20.706;2022-10-16T00:04:23;16.33;;;13.25;;
40511;SDS011;26213;52.446;20.706;2022-10-16T00:06:48;19.88;;;13.57;;
40511;SDS011;26213;52.446;20.706;2022-10-16T00:09:14;18.83;;;13.10;;
40511;SDS011;26213;52.446;20.706;2022-10-16T00:11:39;19.73;;;12.70;;
40511;SDS011;26213;52.446;20.706;2022-10-16T00:14:10;16.35;;;11.68;;
40511;SDS011;26213;52.446;20.706;2022-10-16T00:16:37;15.85;;;11.23;;
40511;SDS011;26213;52.446;20.706;2022-10-16T00:19:03;17.20;;;12.35;;
40511;SDS011;26213;52.446;20.706;2022-10-16T00:21:29;17.73;;;11.20;;
40511;SDS011;26213;52.446;20.706;2022-10-16T00:23:57;19.00;;;12.15;;
40511;SDS011;26213;52.446;20.706;2022-10-16T00:26:25;17.63;;;11.68;;
40511;SDS011;26213;52.446;20.706;2022-10-16T00:28:51;18.67;;;12.45;;
40511;SDS011;26213;52.446;20.706;2022-10-16T00:31:19;15.32;;;11.10;;
40511;SDS011;26213;52.446;20.706;2022-10-16T00:36:11;14.88;;;11.10;;
40511;SDS011;26213;52.446;20.706;2022-10-16T00:38:38;14.15;;;10.30;;
40511;SDS011;26213;52.446;20.706;2022-10-16T00:41:05;15.02;;;10.95;;
40511;SDS011;26213;52.446;20.706;2022-10-16T00:43:35;21.80;;;11.18;;
40511;SDS011;26213;52.446;20.706;2022-10-16T00:46:05;15.38;;;11.07;;
40511;SDS011;26213;52.446;20.706;2022-10-16T00:48:35;16.17;;;10.15;;
40511;SDS011;26213;52.446;20.706;2022-10-16T00:51:00;16.35;;;10.35;;
40511;SDS011;26213;52.446;20.706;2022-10-16T00:53:26;13.73;;;10.27;;
40511;SDS011;26213;52.446;20.706;2022-10-16T00:55:52;13.90;;;11.27;;
40511;SDS011;26213;52.446;20.706;2022-10-16T00:58:18;17.40;;;10.18;;
40511;SDS011;26213;52.446;20.706;2022-10-16T01:00:44;14.68;;;10.52;;
40511;SDS011;26213;52.446;20.706;2022-10-16T01:03:27;12.85;;;10.65;;
40511;SDS011;26213;52.446;20.706;2022-10-16T01:17:00;14.63;;;9.70;;
40511;SDS011;26213;52.446;20.706;2022-10-16T01:22:19;17.60;;;10.77;;
40511;SDS011;26213;52.446;20.706;2022-10-16T01:24:45;16.05;;;10.98;;
40511;SDS011;26213;52.446;20.706;2022-10-16T01:30:37;18.65;;;10.45;;
40511;SDS011;26213;52.446;20.706;2022-10-16T01:32:50;16.33;;;11.57;;
40511;SDS011;26213;52.446;20.706;2022-10-16T01:35:27;15.77;;;10.65;;
40511;SDS011;26213;52.446;20.706;2022-10-16T01:38:15;16.92;;;11.45;;
40511;SDS011;26213;52.446;20.706;2022-10-16T01:40:44;16.33;;;10.38;;
40511;SDS011;26213;52.446;20.706;2022-10-16T01:43:12;19.02;;;11.50;;
40511;SDS011;26213;52.446;20.706;2022-10-16T01:45:40;16.27;;;10.35;;
40511;SDS011;26213;52.446;20.706;2022-10-16T01:48:07;19.52;;;11.65;;
40511;SDS011;26213;52.446;20.706;2022-10-16T01:50:35;16.95;;;10.45;;
40511;SDS011;26213;52.446;20.706;2022-10-16T01:53:03;14.82;;;9.95;;
40511;SDS011;26213;52.446;20.706;2022-10-16T01:55:31;18.35;;;11.45;;
40511;SDS011;26213;52.446;20.706;2022-10-16T01:57:59;14.23;;;10.65;;
40511;SDS011;26213;52.446;20.706;2022-10-16T02:00:27;15.75;;;11.68;;
40511;SDS011;26213;52.446;20.706;2022-10-16T02:02:53;14.82;;;10.45;;
40511;SDS011;26213;52.446;20.706;2022-10-16T02:05:27;14.88;;;11.18;;
40511;SDS011;26213;52.446;20.706;2022-10-16T02:08:14;16.63;;;10.60;;
40511;SDS011;26213;52.446;20.706;2022-10-16T02:10:40;21.50;;;11.10;;
40511;SDS011;26213;52.446;20.706;2022-10-16T02:13:07;14.30;;;11.35;;
40511;SDS011;26213;52.446;20.706;2022-10-16T02:15:38;17.27;;;10.95;;
40511;SDS011;26213;52.446;20.706;2022-10-16T02:18:04;17.73;;;12.27;;
40511;SDS011;26213;52.446;20.706;2022-10-16T02:20:32;17.30;;;11.70;;
40511;SDS011;26213;52.446;20.706;2022-10-16T02:23:12;14.63;;;10.93;;
40511;SDS011;26213;52.446;20.706;2022-10-16T02:25:43;14.23;;;11.20;;
40511;SDS011;26213;52.446;20.706;2022-10-16T02:30:43;16.50;;;11.43;;
40511;SDS011;26213;52.446;20.706;2022-10-16T02:33:12;15.55;;;11.93;;
40511;SDS011;26213;52.446;20.706;2022-10-16T02:35:38;15.83;;;11.33;;
40511;SDS011;26213;52.446;20.706;2022-10-16T02:38:05;19.13;;;11.30;;
40511;SDS011;26213;52.446;20.706;2022-10-16T02:40:31;15.40;;;11.00;;
40511;SDS011;26213;52.446;20.706;2022-10-16T02:42:57;16.42;;;11.90;;
40511;SDS011;26213;52.446;20.706;2022-10-16T02:45:23;17.20;;;12.02;;
40511;SDS011;26213;52.446;20.706;2022-10-16T02:47:49;18.00;;;12.02;;
40511;SDS011;26213;52.446;20.706;2022-10-16T02:50:14;17.10;;;12.48;;
40511;SDS011;26213;52.446;20.706;2022-10-16T02:52:40;21.17;;;12.65;;
40511;SDS011;26213;52.446;20.706;2022-10-16T02:55:05;18.08;;;13.10;;
40511;SDS011;26213;52.446;20.706;2022-10-16T02:57:31;17.95;;;12.30;;
40511;SDS011;26213;52.446;20.706;2022-10-16T02:59:57;16.83;;;11.88;;
40511;SDS011;26213;52.446;20.706;2022-10-16T03:02:23;18.50;;;12.18;;
40511;SDS011;26213;52.446;20.706;2022-10-16T03:04:48;13.70;;;11.73;;
40511;SDS011;26213;52.446;20.706;2022-10-16T03:07:14;14.85;;;11.63;;
40511;SDS011;26213;52.446;20.706;2022-10-16T03:09:39;15.65;;;11.68;;
40511;SDS011;26213;52.446;20.706;2022-10-16T03:12:05;17.67;;;12.18;;
40511;SDS011;26213;52.446;20.706;2022-10-16T03:14:31;21.70;;;12.13;;
40511;SDS011;26213;52.446;20.706;2022-10-16T03:16:56;18.25;;;11.90;;
40511;SDS011;26213;52.446;20.706;2022-10-16T03:19:22;17.63;;;12.15;;
40511;SDS011;26213;52.446;20.706;2022-10-16T03:21:47;17.02;;;11.85;;
40511;SDS011;26213;52.446;20.706;2022-10-16T03:24:13;17.55;;;11.68;;
40511;SDS011;26213;52.446;20.706;2022-10-16T03:26:38;21.58;;;13.15;;
40511;SDS011;26213;52.446;20.706;2022-10-16T03:29:04;17.85;;;11.55;;
40511;SDS011;26213;52.446;20.706;2022-10-16T03:31:30;19.67;;;13.27;;
40511;SDS011;26213;52.446;20.706;2022-10-16T03:33:56;17.88;;;12.00;;
40511;SDS011;26213;52.446;20.706;2022-10-16T03:36:21;15.98;;;11.85;;
40511;SDS011;26213;52.446;20.706;2022-10-16T03:38:47;20.63;;;12.13;;
40511;SDS011;26213;52.446;20.706;2022-10-16T03:41:12;19.60;;;12.43;;
40511;SDS011;26213;52.446;20.706;2022-10-16T03:43:38;20.10;;;13.32;;
40511;SDS011;26213;52.446;20.706;2022-10-16T03:46:03;16.85;;;13.40;;
40511;SDS011;26213;52.446;20.706;2022-10-16T03:48:29;16.30;;;12.05;;
40511;SDS011;26213;52.446;20.706;2022-10-16T03:50:55;20.38;;;13.45;;
40511;SDS011;26213;52.446;20.706;2022-10-16T03:53:20;16.40;;;13.23;;
40511;SDS011;26213;52.446;20.706;2022-10-16T03:55:46;18.05;;;12.98;;
40511;SDS011;26213;52.446;20.706;2022-10-16T03:58:11;19.63;;;13.15;;
40511;SDS011;26213;52.446;20.706;2022-10-16T04:00:43;19.38;;;12.50;;
40511;SDS011;26213;52.446;20.706;2022-10-16T04:03:09;16.92;;;12.55;;
40511;SDS011;26213;52.446;20.706;2022-10-16T04:05:35;19.27;;;12.73;;
40511;SDS011;26213;52.446;20.706;2022-10-16T04:08:01;18.90;;;12.90;;
40511;SDS011;26213;52.446;20.706;2022-10-16T04:10:26;17.63;;;12.27;;
40511;SDS011;26213;52.446;20.706;2022-10-16T04:12:52;19.63;;;13.15;;
40511;SDS011;26213;52.446;20.706;2022-10-16T04:15:19;19.83;;;13.15;;
40511;SDS011;26213;52.446;20.706;2022-10-16T04:17:45;21.98;;;12.63;;
40511;SDS011;26213;52.446;20.706;2022-10-16T04:20:10;21.70;;;14.48;;
40511;SDS011;26213;52.446;20.706;2022-10-16T04:22:36;20.40;;;13.35;;
40511;SDS011;26213;52.446;20.706;2022-10-16T04:25:02;17.13;;;14.13;;
40511;SDS011;26213;52.446;20.706;2022-10-16T04:27:27;17.77;;;12.90;;
40511;SDS011;26213;52.446;20.706;2022-10-16T04:29:53;16.52;;;12.60;;
40511;SDS011;26213;52.446;20.706;2022-10-16T04:32:19;17.67;;;13.55;;
40511;SDS011;26213;52.446;20.706;2022-10-16T04:34:44;22.38;;;15.02;;
40511;SDS011;26213;52.446;20.706;2022-10-16T04:37:10;21.02;;;15.13;;
40511;SDS011;26213;52.446;20.706;2022-10-16T04:39:35;25.60;;;19.42;;
40511;SDS011;26213;52.446;20.706;2022-10-16T04:42:01;25.30;;;14.98;;
40511;SDS011;26213;52.446;20.706;2022-10-16T04:44:27;20.65;;;14.77;;
40511;SDS011;26213;52.446;20.706;2022-10-16T04:46:53;20.92;;;15.38;;
40511;SDS011;26213;52.446;20.706;2022-10-16T04:49:18;21.20;;;15.00;;
40511;SDS011;26213;52.446;20.706;2022-10-16T04:51:44;18.33;;;14.40;;
40511;SDS011;26213;52.446;20.706;2022-10-16T04:54:09;23.13;;;14.82;;
40511;SDS011;26213;52.446;20.706;2022-10-16T04:56:35;20.70;;;13.50;;
40511;SDS011;26213;52.446;20.706;2022-10-16T04:59:07;20.38;;;13.93;;
40511;SDS011;26213;52.446;20.706;2022-10-16T05:01:33;21.17;;;13.95;;
40511;SDS011;26213;52.446;20.706;2022-10-16T05:03:59;21.42;;;14.60;;
40511;SDS011;26213;52.446;20.706;2022-10-16T05:06:24;20.90;;;15.63;;
40511;SDS011;26213;52.446;20.706;2022-10-16T05:08:50;20.05;;;14.70;;
40511;SDS011;26213;52.446;20.706;2022-10-16T05:11:16;20.45;;;13.80;;
40511;SDS011;26213;52.446;20.706;2022-10-16T05:13:41;24.00;;;15.35;;
40511;SDS011;26213;52.446;20.706;2022-10-16T05:16:06;18.75;;;14.25;;
40511;SDS011;26213;52.446;20.706;2022-10-16T05:18:32;20.58;;;14.80;;
40511;SDS011;26213;52.446;20.706;2022-10-16T05:20:57;21.30;;;14.90;;
40511;SDS011;26213;52.446;20.706;2022-10-16T05:23:23;23.70;;;15.13;;
40511;SDS011;26213;52.446;20.706;2022-10-16T05:25:55;21.90;;;14.80;;
40511;SDS011;26213;52.446;20.706;2022-10-16T05:28:23;19.65;;;14.25;;
40511;SDS011;26213;52.446;20.706;2022-10-16T05:30:49;22.33;;;14.85;;
40511;SDS011;26213;52.446;20.706;2022-10-16T05:33:15;23.48;;;15.93;;
40511;SDS011;26213;52.446;20.706;2022-10-16T05:35:40;23.42;;;14.80;;
40511;SDS011;26213;52.446;20.706;2022-10-16T05:38:06;18.35;;;14.73;;
40511;SDS011;26213;52.446;20.706;2022-10-16T05:40:31;23.77;;;15.65;;
40511;SDS011;26213;52.446;20.706;2022-10-16T05:42:57;19.15;;;14.15;;
40511;SDS011;26213;52.446;20.706;2022-10-16T05:45:22;17.42;;;14.05;;
40511;SDS011;26213;52.446;20.706;2022-10-16T05:47:48;23.10;;;14.70;;
40511;SDS011;26213;52.446;20.706;2022-10-16T05:50:13;22.58;;;14.77;;
40511;SDS011;26213;52.446;20.706;2022-10-16T05:52:39;23.60;;;14.77;;
40511;SDS011;26213;52.446;20.706;2022-10-16T05:55:05;20.92;;;13.85;;
40511;SDS011;26213;52.446;20.706;2022-10-16T05:57:30;19.38;;;14.55;;
40511;SDS011;26213;52.446;20.706;2022-10-16T05:59:56;23.52;;;14.07;;
40511;SDS011;26213;52.446;20.706;2022-10-16T06:02:21;19.73;;;14.48;;
40511;SDS011;26213;52.446;20.706;2022-10-16T06:04:47;19.38;;;13.43;;
40511;SDS011;26213;52.446;20.706;2022-10-16T06:07:12;19.17;;;13.50;;
40511;SDS011;26213;52.446;20.706;2022-10-16T06:09:38;18.20;;;13.80;;
40511;SDS011;26213;52.446;20.706;2022-10-16T06:12:03;19.40;;;14.68;;
40511;SDS011;26213;52.446;20.706;2022-10-16T06:14:29;20.10;;;14.00;;
40511;SDS011;26213;52.446;20.706;2022-10-16T06:16:54;20.25;;;14.13;;
40511;SDS011;26213;52.446;20.706;2022-10-16T06:19:20;22.58;;;14.05;;
40511;SDS011;26213;52.446;20.706;2022-10-16T06:21:45;19.13;;;14.32;;
40511;SDS011;26213;52.446;20.706;2022-10-16T06:24:11;22.88;;;14.85;;
40511;SDS011;26213;52.446;20.706;2022-10-16T06:26:36;19.55;;;13.75;;
40511;SDS011;26213;52.446;20.706;2022-10-16T06:29:02;18.60;;;13.85;;
40511;SDS011;26213;52.446;20.706;2022-10-16T06:31:28;23.30;;;14.38;;
40511;SDS011;26213;52.446;20.706;2022-10-16T06:33:56;20.42;;;13.93;;
40511;SDS011;26213;52.446;20.706;2022-10-16T06:36:22;19.15;;;13.88;;
40511;SDS011;26213;52.446;20.706;2022-10-16T06:38:48;18.80;;;13.30;;
40511;SDS011;26213;52.446;20.706;2022-10-16T06:41:15;22.80;;;15.25;;
40511;SDS011;26213;52.446;20.706;2022-10-16T06:43:41;25.00;;;13.68;;
40511;SDS011;26213;52.446;20.706;2022-10-16T06:46:09;16.15;;;12.43;;
40511;SDS011;26213;52.446;20.706;2022-10-16T06:48:35;17.15;;;12.75;;
40511;SDS011;26213;52.446;20.706;2022-10-16T06:51:12;17.30;;;13.77;;
40511;SDS011;26213;52.446;20.706;2022-10-16T06:53:39;19.15;;;13.73;;
40511;SDS011;26213;52.446;20.706;2022-10-16T06:56:07;17.58;;;13.98;;
40511;SDS011;26213;52.446;20.706;2022-10-16T06:58:35;18.77;;;13.18;;
40511;SDS011;26213;52.446;20.706;2022-10-16T07:01:00;18.55;;;14.45;;
40511;SDS011;26213;52.446;20.706;2022-10-16T07:03:26;18.50;;;13.23;;
40511;SDS011;26213;52.446;20.706;2022-10-16T07:05:51;19.83;;;13.85;;
40511;SDS011;26213;52.446;20.706;2022-10-16T07:08:17;19.27;;;13.80;;
40511;SDS011;26213;52.446;20.706;2022-10-16T07:10:42;21.13;;;13.30;;
40511;SDS011;26213;52.446;20.706;2022-10-16T07:13:08;18.67;;;13.60;;
40511;SDS011;26213;52.446;20.706;2022-10-16T07:15:33;21.55;;;14.07;;
40511;SDS011;26213;52.446;20.706;2022-10-16T07:17:59;20.10;;;13.60;;
40511;SDS011;26213;52.446;20.706;2022-10-16T07:20:25;20.40;;;12.88;;
40511;SDS011;26213;52.446;20.706;2022-10-16T07:22:50;16.83;;;13.15;;
40511;SDS011;26213;52.446;20.706;2022-10-16T07:25:17;19.15;;;13.88;;
40511;SDS011;26213;52.446;20.706;2022-10-16T07:27:42;23.00;;;14.00;;
40511;SDS011;26213;52.446;20.706;2022-10-16T07:30:08;19.30;;;13.80;;
40511;SDS011;26213;52.446;20.706;2022-10-16T07:32:34;20.50;;;14.60;;
40511;SDS011;26213;52.446;20.706;2022-10-16T07:34:59;26.75;;;15.73;;
40511;SDS011;26213;52.446;20.706;2022-10-16T07:37:25;22.98;;;14.10;;
40511;SDS011;26213;52.446;20.706;2022-10-16T07:39:50;19.02;;;14.25;;
40511;SDS011;26213;52.446;20.706;2022-10-16T07:42:16;22.70;;;12.38;;
40511;SDS011;26213;52.446;20.706;2022-10-16T07:44:42;17.98;;;12.65;;
40511;SDS011;26213;52.446;20.706;2022-10-16T07:47:08;20.13;;;13.75;;
40511;SDS011;26213;52.446;20.706;2022-10-16T07:49:34;17.92;;;12.65;;
40511;SDS011;26213;52.446;20.706;2022-10-16T07:51:59;20.27;;;12.07;;
40511;SDS011;26213;52.446;20.706;2022-10-16T07:54:25;18.80;;;13.10;;
40511;SDS011;26213;52.446;20.706;2022-10-16T07:56:50;15.75;;;12.52;;
40511;SDS011;26213;52.446;20.706;2022-10-16T07:59:17;19.77;;;12.55;;
40511;SDS011;26213;52.446;20.706;2022-10-16T08:01:42;19.45;;;12.85;;
40511;SDS011;26213;52.446;20.706;2022-10-16T08:04:08;19.20;;;13.07;;
40511;SDS011;26213;52.446;20.706;2022-10-16T08:06:35;20.13;;;11.90;;
40511;SDS011;26213;52.446;20.706;2022-10-16T08:09:03;15.10;;;12.27;;
40511;SDS011;26213;52.446;20.706;2022-10-16T08:11:29;18.88;;;12.15;;
40511;SDS011;26213;52.446;20.706;2022-10-16T08:13:54;18.73;;;12.07;;
40511;SDS011;26213;52.446;20.706;2022-10-16T08:16:20;16.50;;;12.18;;
40511;SDS011;26213;52.446;20.706;2022-10-16T08:18:45;15.98;;;12.18;;
40511;SDS011;26213;52.446;20.706;2022-10-16T08:21:16;15.40;;;11.77;;
40511;SDS011;26213;52.446;20.706;2022-10-16T08:23:45;16.85;;;11.65;;
40511;SDS011;26213;52.446;20.706;2022-10-16T08:26:11;18.35;;;12.48;;
40511;SDS011;26213;52.446;20.706;2022-10-16T08:28:37;20.38;;;11.88;;
40511;SDS011;26213;52.446;20.706;2022-10-16T08:31:06;16.55;;;11.73;;
40511;SDS011;26213;52.446;20.706;2022-10-16T08:33:32;20.75;;;12.68;;
40511;SDS011;26213;52.446;20.706;2022-10-16T08:35:59;18.45;;;12.43;;
40511;SDS011;26213;52.446;20.706;2022-10-16T08:38:25;15.35;;;12.63;;
40511;SDS011;26213;52.446;20.706;2022-10-16T08:40:51;24.20;;;12.48;;
40511;SDS011;26213;52.446;20.706;2022-10-16T08:45:51;17.27;;;11.38;;
40511;SDS011;26213;52.446;20.706;2022-10-16T08:51:02;17.25;;;12.35;;
40511;SDS011;26213;52.446;20.706;2022-10-16T08:53:43;15.65;;;11.80;;
40511;SDS011;26213;52.446;20.706;2022-10-16T08:56:11;15.63;;;12.68;;
40511;SDS011;26213;52.446;20.706;2022-10-16T08:58:36;17.92;;;12.15;;
40511;SDS011;26213;52.446;20.706;2022-10-16T09:01:03;18.60;;;11.88;;
40511;SDS011;26213;52.446;20.706;2022-10-16T09:03:33;15.18;;;11.68;;
40511;SDS011;26213;52.446;20.706;2022-10-16T09:11:58;18.58;;;12.45;;
40511;SDS011;26213;52.446;20.706;2022-10-16T09:17:20;16.48;;;12.65;;
40511;SDS011;26213;52.446;20.706;2022-10-16T09:20:10;20.05;;;12.15;;
40511;SDS011;26213;52.446;20.706;2022-10-16T09:22:41;14.57;;;11.00;;
40511;SDS011;26213;52.446;20.706;2022-10-16T09:25:15;17.58;;;11.73;;
40511;SDS011;26213;52.446;20.706;2022-10-16T09:27:45;15.90;;;11.50;;
40511;SDS011;26213;52.446;20.706;2022-10-16T09:30:17;16.55;;;11.98;;
40511;SDS011;26213;52.446;20.706;2022-10-16T09:32:44;19.25;;;12.95;;
40511;SDS011;26213;52.446;20.706;2022-10-16T09:35:15;17.02;;;11.60;;
40511;SDS011;26213;52.446;20.706;2022-10-16T09:37:44;16.35;;;10.85;;
40511;SDS011;26213;52.446;20.706;2022-10-16T09:42:49;14.02;;;10.27;;
40511;SDS011;26213;52.446;20.706;2022-10-16T09:45:21;15.93;;;9.85;;
40511;SDS011;26213;52.446;20.706;2022-10-16T09:47:48;16.63;;;11.88;;
40511;SDS011;26213;52.446;20.706;2022-10-16T09:50:24;13.48;;;10.27;;
40511;SDS011;26213;52.446;20.706;2022-10-16T09:53:02;13.15;;;9.10;;
40511;SDS011;26213;52.446;20.706;2022-10-16T09:55:31;12.68;;;9.77;;
40511;SDS011;26213;52.446;20.706;2022-10-16T09:57:57;13.55;;;10.75;;
40511;SDS011;26213;52.446;20.706;2022-10-16T10:00:23;16.95;;;10.10;;
40511;SDS011;26213;52.446;20.706;2022-10-16T10:02:49;14.57;;;10.55;;
40511;SDS011;26213;52.446;20.706;2022-10-16T10:05:19;13.27;;;9.50;;
40511;SDS011;26213;52.446;20.706;2022-10-16T10:07:56;13.07;;;9.77;;
40511;SDS011;26213;52.446;20.706;2022-10-16T10:10:27;16.02;;;11.55;;
40511;SDS011;26213;52.446;20.706;2022-10-16T10:12:54;12.73;;;9.50;;
40511;SDS011;26213;52.446;20.706;2022-10-16T10:15:21;12.27;;;10.10;;
40511;SDS011;26213;52.446;20.706;2022-10-16T10:20:21;14.18;;;9.15;;
40511;SDS011;26213;52.446;20.706;2022-10-16T10:22:50;14.43;;;9.85;;
40511;SDS011;26213;52.446;20.706;2022-10-16T10:36:09;14.43;;;10.80;;
40511;SDS011;26213;52.446;20.706;2022-10-16T10:38:58;14.05;;;10.43;;
40511;SDS011;26213;52.446;20.706;2022-10-16T10:44:16;14.30;;;10.07;;
40511;SDS011;26213;52.446;20.706;2022-10-16T10:52:22;15.52;;;11.02;;
40511;SDS011;26213;52.446;20.706;2022-10-16T11:00:53;11.75;;;10.07;;
40511;SDS011;26213;52.446;20.706;2022-10-16T11:06:24;14.85;;;10.50;;
40511;SDS011;26213;52.446;20.706;2022-10-16T11:08:52;15.60;;;10.45;;
40511;SDS011;26213;52.446;20.706;2022-10-16T11:11:23;15.40;;;10.85;;
40511;SDS011;26213;52.446;20.706;2022-10-16T11:16:54;17.40;;;12.35;;
40511;SDS011;26213;52.446;20.706;2022-10-16T11:19:25;13.57;;;10.20;;
40511;SDS011;26213;52.446;20.706;2022-10-16T11:22:20;16.02;;;14.23;;
40511;SDS011;26213;52.446;20.706;2022-10-16T11:24:53;21.15;;;18.00;;
40511;SDS011;26213;52.446;20.706;2022-10-16T11:35:22;14.85;;;11.43;;
40511;SDS011;26213;52.446;20.706;2022-10-16T11:37:50;16.65;;;12.07;;
40511;SDS011;26213;52.446;20.706;2022-10-16T11:40:31;16.10;;;13.50;;
40511;SDS011;26213;52.446;20.706;2022-10-16T11:43:04;18.40;;;14.85;;
40511;SDS011;26213;52.446;20.706;2022-10-16T11:45:39;30.65;;;27.35;;
40511;SDS011;26213;52.446;20.706;2022-10-16T11:50:58;13.85;;;10.13;;
40511;SDS011;26213;52.446;20.706;2022-10-16T11:53:53;12.68;;;10.13;;
40511;SDS011;26213;52.446;20.706;2022-10-16T11:56:32;22.50;;;14.25;;
40511;SDS011;26213;52.446;20.706;2022-10-16T11:59:12;23.52;;;14.27;;
40511;SDS011;26213;52.446;20.706;2022-10-16T12:01:45;14.98;;;10.60;;
40511;SDS011;26213;52.446;20.706;2022-10-16T12:04:39;13.05;;;10.57;;
40511;SDS011;26213;52.446;20.706;2022-10-16T12:07:24;14.10;;;9.80;;
40511;SDS011;26213;52.446;20.706;2022-10-16T12:09:51;15.05;;;10.63;;
40511;SDS011;26213;52.446;20.706;2022-10-16T12:12:24;12.63;;;10.02;;
40511;SDS011;26213;52.446;20.706;2022-10-16T12:14:59;13.35;;;10.45;;
40511;SDS011;26213;52.446;20.706;2022-10-16T12:17:27;13.80;;;10.48;;
40511;SDS011;26213;52.446;20.706;2022-10-16T12:20:12;13.40;;;9.82;;
40511;SDS011;26213;52.446;20.706;2022-10-16T12:22:59;15.52;;;9.90;;
40511;SDS011;26213;52.446;20.706;2022-10-16T12:25:30;13.82;;;8.80;;
40511;SDS011;26213;52.446;20.706;2022-10-16T12:30:41;12.65;;;9.15;;
40511;SDS011;26213;52.446;20.706;2022-10-16T12:33:27;11.38;;;9.30;;
40511;SDS011;26213;52.446;20.706;2022-10-16T12:35:54;13.85;;;10.40;;
40511;SDS011;26213;52.446;20.706;2022-10-16T12:38:27;12.07;;;10.07;;
40511;SDS011;26213;52.446;20.706;2022-10-16T12:41:40;15.57;;;8.65;;
40511;SDS011;26213;52.446;20.706;2022-10-16T12:43:51;12.18;;;10.00;;
40511;SDS011;26213;52.446;20.706;2022-10-16T12:48:43;16.67;;;10.48;;
40511;SDS011;26213;52.446;20.706;2022-10-16T12:51:21;15.45;;;10.52;;
40511;SDS011;26213;52.446;20.706;2022-10-16T12:54:49;15.32;;;9.18;;
40511;SDS011;26213;52.446;20.706;2022-10-16T13:00:04;12.82;;;9.02;;
40511;SDS011;26213;52.446;20.706;2022-10-16T13:26:53;16.20;;;12.02;;
40511;SDS011;26213;52.446;20.706;2022-10-16T13:29:20;14.30;;;11.32;;
40511;SDS011;26213;52.446;20.706;2022-10-16T13:31:46;26.23;;;21.40;;
40511;SDS011;26213;52.446;20.706;2022-10-16T13:34:15;23.95;;;17.88;;
40511;SDS011;26213;52.446;20.706;2022-10-16T13:36:44;15.07;;;12.15;;
40511;SDS011;26213;52.446;20.706;2022-10-16T13:44:25;17.40;;;13.15;;
40511;SDS011;26213;52.446;20.706;2022-10-16T13:46:59;16.80;;;11.60;;
40511;SDS011;26213;52.446;20.706;2022-10-16T13:49:25;17.05;;;12.27;;
40511;SDS011;26213;52.446;20.706;2022-10-16T13:51:54;14.35;;;11.48;;
40511;SDS011;26213;52.446;20.706;2022-10-16T13:54:21;15.65;;;12.25;;
40511;SDS011;26213;52.446;20.706;2022-10-16T13:56:47;19.45;;;12.50;;
40511;SDS011;26213;52.446;20.706;2022-10-16T14:01:52;16.85;;;11.85;;
40511;SDS011;26213;52.446;20.706;2022-10-16T14:04:19;17.02;;;12.00;;
40511;SDS011;26213;52.446;20.706;2022-10-16T14:06:46;15.38;;;12.90;;
40511;SDS011;26213;52.446;20.706;2022-10-16T14:11:50;17.67;;;13.73;;
40511;SDS011;26213;52.446;20.706;2022-10-16T14:14:21;17.80;;;14.43;;
40511;SDS011;26213;52.446;20.706;2022-10-16T14:16:47;16.80;;;13.13;;
40511;SDS011;26213;52.446;20.706;2022-10-16T14:19:23;20.65;;;14.13;;
40511;SDS011;26213;52.446;20.706;2022-10-16T14:21:52;24.80;;;16.45;;
40511;SDS011;26213;52.446;20.706;2022-10-16T14:24:52;24.13;;;17.35;;
40511;SDS011;26213;52.446;20.706;2022-10-16T14:30:14;23.17;;;14.82;;
40511;SDS011;26213;52.446;20.706;2022-10-16T14:32:52;30.83;;;20.90;;
40511;SDS011;26213;52.446;20.706;2022-10-16T14:37:55;15.95;;;13.70;;
40511;SDS011;26213;52.446;20.706;2022-10-16T14:40:26;17.80;;;13.82;;
40511;SDS011;26213;52.446;20.706;2022-10-16T14:43:01;16.48;;;11.35;;
40511;SDS011;26213;52.446;20.706;2022-10-16T14:45:28;18.90;;;13.98;;
40511;SDS011;26213;52.446;20.706;2022-10-16T14:47:56;17.45;;;14.73;;
40511;SDS011;26213;52.446;20.706;2022-10-16T14:50:23;19.05;;;15.52;;
40511;SDS011;26213;52.446;20.706;2022-10-16T14:52:49;22.88;;;16.83;;
40511;SDS011;26213;52.446;20.706;2022-10-16T14:55:15;21.92;;;17.17;;
40511;SDS011;26213;52.446;20.706;2022-10-16T14:57:40;23.83;;;16.73;;
40511;SDS011;26213;52.446;20.706;2022-10-16T15:00:21;23.40;;;18.02;;
40511;SDS011;26213;52.446;20.706;2022-10-16T15:02:47;23.15;;;17.20;;
40511;SDS011;26213;52.446;20.706;2022-10-16T15:05:21;29.02;;;19.48;;
40511;SDS011;26213;52.446;20.706;2022-10-16T15:07:51;27.58;;;18.77;;
40511;SDS011;26213;52.446;20.706;2022-10-16T15:10:19;23.00;;;16.88;;
40511;SDS011;26213;52.446;20.706;2022-10-16T15:12:45;24.65;;;17.60;;
40511;SDS011;26213;52.446;20.706;2022-10-16T15:17:49;26.42;;;20.15;;
40511;SDS011;26213;52.446;20.706;2022-10-16T15:20:17;29.75;;;23.45;;
40511;SDS011;26213;52.446;20.706;2022-10-16T15:22:43;39.00;;;32.50;;
40511;SDS011;26213;52.446;20.706;2022-10-16T15:25:15;26.63;;;21.45;;
40511;SDS011;26213;52.446;20.706;2022-10-16T15:27:58;24.25;;;15.57;;
40511;SDS011;26213;52.446;20.706;2022-10-16T15:30:25;18.63;;;14.43;;
40511;SDS011;26213;52.446;20.706;2022-10-16T15:32:50;46.28;;;41.22;;
40511;SDS011;26213;52.446;20.706;2022-10-16T15:35:16;58.45;;;52.33;;
40511;SDS011;26213;52.446;20.706;2022-10-16T15:37:42;44.20;;;39.65;;
40511;SDS011;26213;52.446;20.706;2022-10-16T15:40:08;39.17;;;35.33;;
40511;SDS011;26213;52.446;20.706;2022-10-16T15:42:35;47.88;;;43.15;;
40511;SDS011;26213;52.446;20.706;2022-10-16T15:45:00;62.85;;;56.35;;
40511;SDS011;26213;52.446;20.706;2022-10-16T15:47:26;63.17;;;57.35;;
40511;SDS011;26213;52.446;20.706;2022-10-16T15:49:51;67.55;;;60.75;;
40511;SDS011;26213;52.446;20.706;2022-10-16T15:52:17;42.17;;;37.63;;
40511;SDS011;26213;52.446;20.706;2022-10-16T15:54:43;42.00;;;28.05;;
40511;SDS011;26213;52.446;20.706;2022-10-16T15:57:08;65.20;;;39.08;;
40511;SDS011;26213;52.446;20.706;2022-10-16T15:59:34;53.08;;;33.25;;
40511;SDS011;26213;52.446;20.706;2022-10-16T16:02:00;44.08;;;30.42;;
40511;SDS011;26213;52.446;20.706;2022-10-16T16:04:25;81.43;;;47.75;;
40511;SDS011;26213;52.446;20.706;2022-10-16T16:06:51;101.88;;;69.85;;
40511;SDS011;26213;52.446;20.706;2022-10-16T16:09:16;128.75;;;82.43;;
40511;SDS011;26213;52.446;20.706;2022-10-16T16:11:41;148.02;;;88.05;;
40511;SDS011;26213;52.446;20.706;2022-10-16T16:14:07;128.70;;;83.68;;
40511;SDS011;26213;52.446;20.706;2022-10-16T16:16:37;130.45;;;83.18;;
40511;SDS011;26213;52.446;20.706;2022-10-16T16:19:06;115.68;;;73.57;;
40511;SDS011;26213;52.446;20.706;2022-10-16T16:21:34;88.40;;;64.13;;
40511;SDS011;26213;52.446;20.706;2022-10-16T16:24:00;141.13;;;101.00;;
40511;SDS011;26213;52.446;20.706;2022-10-16T16:26:29;108.70;;;78.97;;
40511;SDS011;26213;52.446;20.706;2022-10-16T16:29:00;125.35;;;89.43;;
40511;SDS011;26213;52.446;20.706;2022-10-16T16:31:26;116.03;;;83.13;;